Time;durP1;ratioP1;P1;durP2;ratioP2;P2;SDS_P1;SDS_P2;PMS_P1;PMS_P2;Temp;Humidity;BMP_temperature;BMP_pressure;BME280_temperature;BME280_humidity;BME280_pressure;Samples;Min_cycle;Max_cycle;Signal;HPM_P1;HPM_P2
2022/12/11 00:01:45;;;;;;;;;;;;;;;;;;5146018;27;19923;-57
2022/12/11 00:04:11;;;;;;;;;;;;;;;;;;5142055;27;20270;-58
2022/12/11 00:06:37;;;;;;;;;;;;;;;;;;5132258;27;19927;-58
2022/12/11 00:09:03;;;;;;;;;;;;;;;;;;5135663;27;19924;-58
2022/12/11 00:11:29;;;;;;;;;;;;;;;;;;5132381;27;20019;-58
2022/12/11 00:13:55;;;;;;;;;;;;;;;;;;5136226;27;19930;-57
2022/12/11 00:16:20;;;;;;;;;;;;;;;;;;5128861;27;19924;-57
2022/12/11 00:18:46;;;;;;;;;;;;;;;;;;5136406;27;19927;-57
2022/12/11 00:21:13;;;;;;;;;;;;;;;;;;5139178;27;19923;-57
2022/12/11 00:23:39;;;;;;;;;;;;;;;;;;5132084;27;20166;-57
2022/12/11 00:26:05;;;;;;;;;;;;;;;;;;5129709;27;20430;-58
2022/12/11 00:28:31;;;;;;;;;;;;;;;;;;5134283;27;19939;-58
2022/12/11 00:30:57;;;;;;;;;;;;;;;;;;5137256;27;19927;-58
2022/12/11 00:33:23;;;;;;;;;;;;;;;;;;5128851;27;20540;-58
2022/12/11 00:35:49;;;;;;;;;;;;;;;;;;5142223;27;20025;-57
2022/12/11 00:38:15;;;;;;;;;;;;;;;;;;5128946;27;20688;-57
2022/12/11 00:40:41;;;;;;;;;;;;;;;;;;5135832;27;20136;-58
2022/12/11 00:43:07;;;;;;;;;;;;;;;;;;5131335;27;19927;-58
2022/12/11 00:45:33;;;;;;;;;;;;;;;;;;5135280;27;19923;-58
2022/12/11 00:47:58;;;;;;;;;;;;;;;;;;5140238;27;19927;-57
2022/12/11 00:50:24;;;;;;;;;;;;;;;;;;5136906;27;20393;-57
2022/12/11 00:52:50;;;;;;;;;;;;;;;;;;5133171;27;19964;-58
2022/12/11 00:55:17;;;;;;;;;;;;;;;;;;5138394;27;19938;-57
2022/12/11 00:57:43;;;;;;;;;;;;;;;;;;5121223;27;19923;-58
2022/12/11 01:00:08;;;;;;;;;;;;;;;;;;5136717;27;19923;-56
2022/12/11 01:02:34;;;;;;;;;;;;;;;;;;5133714;27;20381;-58
2022/12/11 01:05:00;;;;;;;;;;;;;;;;;;5137500;27;20374;-57
2022/12/11 01:07:26;;;;;;;;;;;;;;;;;;5139601;27;19934;-57
2022/12/11 01:12:37;;;;;;;;;;;;;;;;;;5130731;27;19927;-58
2022/12/11 01:15:03;;;;;;;;;;;;;;;;;;5133971;27;19923;-57
2022/12/11 01:17:28;;;;;;;;;;;;;;;;;;5134819;27;19934;-57
2022/12/11 01:19:54;;;;;;;;;;;;;;;;;;5131920;27;20409;-57
2022/12/11 01:22:20;;;;;;;;;;;;;;;;;;5144845;27;19976;-58
2022/12/11 01:24:46;;;;;;;;;;;;;;;;;;5140113;27;19931;-57
2022/12/11 01:27:12;;;;;;;;;;;;;;;;;;5140583;27;20370;-57
2022/12/11 01:29:38;;;;;;;;;;;;;;;;;;5131610;27;19923;-59
2022/12/11 01:32:04;;;;;;;;;;;;;;;;;;5129755;27;19961;-58
2022/12/11 01:34:30;;;;;;;;;;;;;;;;;;5130565;27;19935;-58
2022/12/11 01:36:56;;;;;;;;;;;;;;;;;;5144584;27;19981;-57
2022/12/11 01:39:22;;;;;;;;;;;;;;;;;;5130463;27;19932;-57
2022/12/11 01:41:48;;;;;;;;;;;;;;;;;;5142173;27;19992;-57
2022/12/11 01:44:14;;;;;;;;;;;;;;;;;;5133789;27;20386;-57
2022/12/11 01:46:40;;;;;;;;;;;;;;;;;;5134484;27;19923;-57
2022/12/11 01:49:06;;;;;;;;;;;;;;;;;;5137082;27;19931;-58
2022/12/11 01:51:31;;;;;;;;;;;;;;;;;;5134565;27;20355;-57
2022/12/11 01:53:57;;;;;;;;;;;;;;;;;;5129584;27;20361;-57
2022/12/11 01:56:23;;;;;;;;;;;;;;;;;;5134558;27;20197;-57
2022/12/11 01:58:50;;;;;;;;;;;;;;;;;;5129773;27;19983;-57
2022/12/11 02:01:16;;;;;;;;;;;;;;;;;;5133557;27;20013;-58
2022/12/11 02:03:42;;;;;;;;;;;;;;;;;;5133459;27;20353;-57
2022/12/11 02:06:08;;;;;;;;;;;;;;;;;;5135532;27;19923;-58
2022/12/11 02:08:34;;;;;;;;;;;;;;;;;;5140282;27;19934;-58
2022/12/11 02:11:00;;;;;;;;;;;;;;;;;;5128305;27;19990;-59
2022/12/11 02:13:26;;;;;;;;;;;;;;;;;;5134511;27;19923;-58
2022/12/11 02:15:52;;;;;;;;;;;;;;;;;;5133620;27;19938;-58
2022/12/11 02:18:17;;;;;;;;;;;;;;;;;;5138174;27;20286;-58
2022/12/11 02:20:44;;;;;;;;;;;;;;;;;;5128507;27;19924;-58
2022/12/11 02:23:09;;;;;;;;;;;;;;;;;;5134112;27;20395;-57
2022/12/11 02:25:35;;;;;;;;;;;;;;;;;;5131788;27;20021;-59
2022/12/11 02:28:01;;;;;;;;;;;;;;;;;;5127016;27;19979;-60
2022/12/11 02:30:28;;;;;;;13.95;6.80;;;;;;;;;;5137751;27;20312;-59
2022/12/11 02:32:55;;;;;;;15.98;6.60;;;;;;;;;;5135974;27;20038;-59
2022/12/11 02:35:24;;;;;;;17.80;7.80;;;;;;;;;;5126242;27;20509;-59
2022/12/11 02:37:55;;;;;;;14.57;6.43;;;;;;;;;;5133912;27;20166;-58
2022/12/11 02:40:24;;;;;;;12.48;6.88;;;;;;;;;;5126866;27;20417;-58
2022/12/11 02:42:51;;;;;;;14.52;6.93;;;;;;;;;;5138107;27;20051;-58
2022/12/11 02:45:17;;;;;;;;;;;;;;;;;;5131241;27;20066;-58
2022/12/11 02:47:43;;;;;;;;;;;;;;;;;;5130741;27;19923;-59
2022/12/11 02:50:09;;;;;;;;;;;;;;;;;;5134025;27;19927;-58
2022/12/11 02:52:35;;;;;;;;;;;;;;;;;;5133553;27;19926;-58
2022/12/11 02:55:00;;;;;;;;;;;;;;;;;;5135997;27;19928;-58
2022/12/11 02:57:26;;;;;;;;;;;;;;;;;;5135571;27;20014;-58
2022/12/11 02:59:52;;;;;;;;;;;;;;;;;;5131921;27;19974;-58
2022/12/11 03:02:18;;;;;;;;;;;;;;;;;;5127177;27;20002;-58
2022/12/11 03:04:44;;;;;;;;;;;;;;;;;;5130425;27;19919;-58
2022/12/11 03:07:13;;;;;;;;;;;;;;;;;;5129913;27;19924;-58
2022/12/11 03:09:39;;;;;;;;;;;;;;;;;;5137540;27;19964;-58
2022/12/11 03:12:05;;;;;;;;;;;;;;;;;;5135135;27;20315;-58
2022/12/11 03:14:31;;;;;;;;;;;;;;;;;;5135485;27;20010;-57
2022/12/11 03:16:56;;;;;;;;;;;;;;;;;;5132971;27;20643;-58
2022/12/11 03:19:23;;;;;;;;;;;;;;;;;;5140716;27;19925;-58
2022/12/11 03:21:48;;;;;;;;;;;;;;;;;;5141300;27;19925;-58
2022/12/11 03:24:14;;;;;;;;;;;;;;;;;;5130392;27;19919;-58
2022/12/11 03:26:40;;;;;;;;;;;;;;;;;;5137440;27;20389;-58
2022/12/11 03:29:06;;;;;;;;;;;;;;;;;;5137714;27;20483;-58
2022/12/11 03:31:32;;;;;;;;;;;;;;;;;;5134612;27;19984;-58
2022/12/11 03:33:58;;;;;;;;;;;;;;;;;;5131005;27;19995;-59
2022/12/11 03:36:24;;;;;;;;;;;;;;;;;;5137549;27;19943;-58
2022/12/11 03:38:50;;;;;;;;;;;;;;;;;;5132901;27;19971;-57
2022/12/11 03:41:16;;;;;;;;;;;;;;;;;;5139430;27;20277;-59
2022/12/11 03:43:42;;;;;;;;;;;;;;;;;;5130791;27;19962;-58
2022/12/11 03:46:08;;;;;;;;;;;;;;;;;;5135683;27;20039;-59
2022/12/11 03:48:34;;;;;;;;;;;;;;;;;;5137636;27;20056;-58
2022/12/11 03:51:00;;;;;;;;;;;;;;;;;;5132099;27;19923;-58
2022/12/11 03:53:25;;;;;;;;;;;;;;;;;;5135906;27;20003;-59
2022/12/11 03:55:51;;;;;;;;;;;;;;;;;;5128936;27;20084;-59
2022/12/11 03:58:17;;;;;;;;;;;;;;;;;;5132491;27;20333;-58
2022/12/11 04:00:43;;;;;;;;;;;;;;;;;;5134369;27;20006;-58
2022/12/11 04:03:12;;;;;;;;;;;;;;;;;;5132286;27;20056;-58
2022/12/11 04:05:38;;;;;;;;;;;;;;;;;;5142968;27;19970;-58
2022/12/11 04:08:04;;;;;;;;;;;;;;;;;;5144281;27;19961;-58
2022/12/11 04:10:30;;;;;;;;;;;;;;;;;;5137153;27;20090;-58
2022/12/11 04:12:55;;;;;;;;;;;;;;;;;;5136904;27;20361;-59
2022/12/11 04:15:21;;;;;;;;;;;;;;;;;;5143258;27;19926;-58
2022/12/11 04:26:01;;;;;;;;;;;;;;;;;;5129056;27;20006;-58
2022/12/11 04:28:27;;;;;;;;;;;;;;;;;;5131510;27;20190;-59
2022/12/11 04:30:53;;;;;;;;;;;;;;;;;;5129291;27;20010;-56
2022/12/11 04:33:19;;;;;;;;;;;;;;;;;;5134878;27;19919;-56
2022/12/11 04:35:45;;;;;;;;;;;;;;;;;;5129119;27;19975;-56
2022/12/11 04:38:11;;;;;;;;;;;;;;;;;;5137856;27;20002;-55
2022/12/11 04:40:36;;;;;;;;;;;;;;;;;;5128802;27;19923;-56
2022/12/11 04:43:02;;;;;;;;;;;;;;;;;;5141568;27;20280;-56
2022/12/11 04:45:28;;;;;;;;;;;;;;;;;;5139425;27;19923;-56
2022/12/11 04:47:54;;;;;;;;;;;;;;;;;;5133245;27;19919;-56
2022/12/11 04:50:20;;;;;;;;;;;;;;;;;;5138281;27;19919;-56
2022/12/11 04:52:46;;;;;;;;;;;;;;;;;;5135583;27;19923;-56
2022/12/11 04:55:12;;;;;;;;;;;;;;;;;;5134112;27;19927;-56
2022/12/11 04:57:38;;;;;;;;;;;;;;;;;;5133580;27;19922;-55
2022/12/11 05:00:04;;;;;;;;;;;;;;;;;;5134251;27;19934;-56
2022/12/11 05:02:29;;;;;;;;;;;;;;;;;;5131494;27;19928;-56
2022/12/11 05:04:55;;;;;;;;;;;;;;;;;;5132418;27;19918;-56
2022/12/11 05:07:21;;;;;;;;;;;;;;;;;;5130971;27;19927;-56
2022/12/11 05:09:47;;;;;;;;;;;;;;;;;;5131523;27;19922;-56
2022/12/11 05:12:13;;;;;;;;;;;;;;;;;;5134215;27;19923;-58
2022/12/11 05:14:39;;;;;;;;;;;;;;;;;;5148812;27;19919;-59
2022/12/11 05:17:05;;;;;;;;;;;;;;;;;;5131182;27;19919;-58
2022/12/11 05:19:31;;;;;;;;;;;;;;;;;;5133874;27;19923;-58
2022/12/11 05:21:57;;;;;;;;;;;;;;;;;;5133076;27;19923;-58
2022/12/11 05:24:23;;;;;;;;;;;;;;;;;;5134650;27;20339;-58
2022/12/11 05:26:48;;;;;;;;;;;;;;;;;;5131104;27;19920;-58
2022/12/11 05:29:14;;;;;;;;;;;;;;;;;;5134867;27;19920;-58
2022/12/11 05:31:40;;;;;;;;;;;;;;;;;;5130466;27;20451;-59
2022/12/11 05:34:06;;;;;;;;;;;;;;;;;;5131576;27;20297;-58
2022/12/11 05:36:32;;;;;;;;;;;;;;;;;;5132062;27;19922;-59
2022/12/11 05:38:58;;;;;;;;;;;;;;;;;;5134006;27;19919;-58
2022/12/11 05:41:24;;;;;;;;;;;;;;;;;;5138951;27;20329;-59
2022/12/11 05:43:50;;;;;;;;;;;;;;;;;;5134925;27;20018;-58
2022/12/11 05:46:16;;;;;;;;;;;;;;;;;;5133331;27;19955;-58
2022/12/11 05:48:42;;;;;;;;;;;;;;;;;;5128217;27;20017;-58
2022/12/11 05:51:08;;;;;;;;;;;;;;;;;;5135698;27;19919;-59
2022/12/11 05:53:33;;;;;;;;;;;;;;;;;;5132754;27;19927;-59
2022/12/11 05:55:59;;;;;;;;;;;;;;;;;;5129350;27;19923;-58
2022/12/11 05:58:25;;;;;;;;;;;;;;;;;;5134685;27;19919;-58
2022/12/11 06:00:51;;;;;;;;;;;;;;;;;;5139933;27;19927;-58
2022/12/11 06:03:17;;;;;;;;;;;;;;;;;;5131367;27;19923;-59
2022/12/11 06:05:43;;;;;;;;;;;;;;;;;;5128830;27;19920;-58
2022/12/11 06:08:09;;;;;;;;;;;;;;;;;;5131140;27;19919;-58
2022/12/11 06:10:35;;;;;;;;;;;;;;;;;;5129822;27;19963;-58
2022/12/11 06:13:01;;;;;;;;;;;;;;;;;;5137823;27;20323;-58
2022/12/11 06:15:27;;;;;;;;;;;;;;;;;;5129657;27;19919;-58
2022/12/11 06:17:52;;;;;;;;;;;;;;;;;;5131010;27;19919;-58
2022/12/11 06:20:18;;;;;;;;;;;;;;;;;;5133395;27;19919;-59
2022/12/11 06:22:44;;;;;;;;;;;;;;;;;;5137177;27;19927;-58
2022/12/11 06:25:10;;;;;;;;;;;;;;;;;;5130637;27;19931;-58
2022/12/11 06:27:36;;;;;;;;;;;;;;;;;;5129414;27;19971;-58
2022/12/11 06:30:02;;;;;;;;;;;;;;;;;;5128312;27;20136;-59
2022/12/11 06:32:28;;;;;;;;;;;;;;;;;;5128455;27;20309;-58
2022/12/11 06:34:54;;;;;;;;;;;;;;;;;;5128364;27;19938;-58
2022/12/11 06:37:20;;;;;;;;;;;;;;;;;;5129423;27;19919;-59
2022/12/11 06:39:46;;;;;;;;;;;;;;;;;;5128906;27;19926;-58
2022/12/11 06:42:12;;;;;;;;;;;;;;;;;;5132562;27;20033;-58
2022/12/11 06:44:38;;;;;;;;;;;;;;;;;;5136675;27;19975;-58
2022/12/11 06:47:04;;;;;;;;;;;;;;;;;;5135612;27;20393;-58
2022/12/11 06:49:30;;;;;;;;;;;;;;;;;;5138720;27;20436;-58
2022/12/11 06:51:56;;;;;;;;;;;;;;;;;;5132094;27;19927;-58
2022/12/11 06:54:22;;;;;;;;;;;;;;;;;;5140229;27;20071;-59
2022/12/11 06:56:48;;;;;;;;;;;;;;;;;;5134456;27;19987;-59
2022/12/11 06:59:14;;;;;;;;;;;;;;;;;;5135064;27;20345;-58
2022/12/11 07:01:39;;;;;;;;;;;;;;;;;;5136241;27;19927;-58
2022/12/11 07:04:05;;;;;;;;;;;;;;;;;;5133042;27;19919;-58
2022/12/11 07:06:31;;;;;;;;;;;;;;;;;;5134725;27;20018;-58
2022/12/11 07:08:57;;;;;;;;;;;;;;;;;;5132138;27;20076;-58
2022/12/11 07:11:23;;;;;;;;;;;;;;;;;;5112351;27;19971;-58
2022/12/11 07:13:49;;;;;;;;;;;;;;;;;;5133326;27;19919;-58
2022/12/11 07:16:15;;;;;;;;;;;;;;;;;;5130488;27;19925;-58
2022/12/11 07:18:41;;;;;;;;;;;;;;;;;;5131261;27;20007;-58
2022/12/11 07:21:07;;;;;;;;;;;;;;;;;;5134800;27;21087;-58
2022/12/11 07:23:33;;;;;;;;;;;;;;;;;;5135877;27;20000;-58
2022/12/11 07:25:59;;;;;;;;;;;;;;;;;;5139812;27;20550;-59
2022/12/11 07:28:25;;;;;;;;;;;;;;;;;;5137690;27;19931;-58
2022/12/11 07:30:51;;;;;;;;;;;;;;;;;;5138491;27;19923;-58
2022/12/11 07:33:17;;;;;;;;;;;;;;;;;;5130936;27;19931;-58
2022/12/11 07:35:43;;;;;;;;;;;;;;;;;;5130910;27;19923;-58
2022/12/11 07:38:09;;;;;;;;;;;;;;;;;;5133079;27;19990;-58
2022/12/11 07:40:35;;;;;;;;;;;;;;;;;;5138404;27;19919;-58
2022/12/11 07:43:00;;;;;;;;;;;;;;;;;;5139236;27;20350;-58
2022/12/11 07:45:26;;;;;;;;;;;;;;;;;;5136893;27;19925;-58
2022/12/11 07:47:52;;;;;;;;;;;;;;;;;;5132149;27;20277;-58
2022/12/11 07:50:18;;;;;;;;;;;;;;;;;;5138677;27;19927;-58
2022/12/11 07:52:44;;;;;;;;;;;;;;;;;;5136596;27;19919;-58
2022/12/11 07:55:10;;;;;;;;;;;;;;;;;;5133992;27;19923;-58
2022/12/11 07:57:36;;;;;;;;;;;;;;;;;;5133741;27;19942;-58
2022/12/11 08:00:02;;;;;;;;;;;;;;;;;;5129271;27;19924;-58
2022/12/11 08:02:28;;;;;;;;;;;;;;;;;;5138101;27;19919;-58
2022/12/11 08:04:54;;;;;;;;;;;;;;;;;;5142013;27;20360;-58
2022/12/11 08:07:20;;;;;;;;;;;;;;;;;;5134483;27;19919;-59
2022/12/11 08:09:46;;;;;;;;;;;;;;;;;;5138364;27;19923;-58
2022/12/11 08:12:12;;;;;;;;;;;;;;;;;;5139383;27;20002;-58
2022/12/11 08:14:38;;;;;;;;;;;;;;;;;;5148769;27;20058;-59
2022/12/11 08:17:03;;;;;;;;;;;;;;;;;;5135371;27;19991;-58
2022/12/11 08:19:30;;;;;;;;;;;;;;;;;;5129356;27;21155;-58
2022/12/11 08:21:55;;;;;;;;;;;;;;;;;;5134881;27;19923;-58
2022/12/11 08:24:21;;;;;;;;;;;;;;;;;;5142538;27;19922;-58
2022/12/11 08:26:47;;;;;;;;;;;;;;;;;;5140256;27;19926;-58
2022/12/11 08:29:13;;;;;;;;;;;;;;;;;;5140473;27;19988;-58
2022/12/11 08:31:40;;;;;;;19.40;9.38;;;;;;;;;;5127970;27;20068;-56
2022/12/11 08:34:06;;;;;;;17.02;8.25;;;;;;;;;;5137797;27;20482;-56
2022/12/11 08:36:32;;;;;;;;;;;;;;;;;;5136014;27;20589;-56
2022/12/11 08:38:58;;;;;;;;;;;;;;;;;;5128963;27;20030;-57
2022/12/11 08:41:24;;;;;;;;;;;;;;;;;;5129708;27;19996;-56
2022/12/11 08:43:53;;;;;;;;;;;;;;;;;;5135472;27;19979;-57
2022/12/11 08:46:19;;;;;;;;;;;;;;;;;;5146263;27;19923;-57
2022/12/11 08:48:45;;;;;;;;;;;;;;;;;;5128829;27;19979;-57
2022/12/11 08:51:11;;;;;;;;;;;;;;;;;;5127739;27;20334;-56
2022/12/11 08:53:38;;;;;;;;;;;;;;;;;;5110701;27;20479;-56
2022/12/11 08:56:04;;;;;;;;;;;;;;;;;;5129743;27;19919;-56
2022/12/11 08:58:30;;;;;;;;;;;;;;;;;;5148515;27;19933;-58
2022/12/11 09:00:56;;;;;;;;;;;;;;;;;;5141489;27;20277;-58
2022/12/11 09:03:22;;;;;;;;;;;;;;;;;;5142505;27;20173;-57
2022/12/11 09:05:48;;;;;;;;;;;;;;;;;;5129728;27;19919;-57
2022/12/11 09:08:14;;;;;;;;;;;;;;;;;;5129722;27;20145;-57
2022/12/11 09:10:40;;;;;;;;;;;;;;;;;;5144977;27;19927;-58
2022/12/11 09:13:06;;;;;;;;;;;;;;;;;;5127650;27;19919;-58
2022/12/11 09:15:31;;;;;;;;;;;;;;;;;;5118495;27;19934;-58
2022/12/11 09:17:57;;;;;;;;;;;;;;;;;;5146717;27;19919;-57
2022/12/11 09:20:23;;;;;;;;;;;;;;;;;;5127381;27;19919;-58
2022/12/11 09:22:49;;;;;;;;;;;;;;;;;;5128148;27;20401;-58
2022/12/11 09:25:15;;;;;;;;;;;;;;;;;;5128906;27;19919;-58
2022/12/11 09:27:41;;;;;;;;;;;;;;;;;;5128100;27;19923;-57
2022/12/11 09:30:07;;;;;;;;;;;;;;;;;;5127919;27;20199;-54
2022/12/11 09:32:33;;;;;;;;;;;;;;;;;;5142620;27;20844;-56
2022/12/11 09:34:59;;;;;;;;;;;;;;;;;;5126952;27;20626;-56
2022/12/11 09:37:24;;;;;;;;;;;;;;;;;;5127234;27;20048;-58
2022/12/11 09:39:50;;;;;;;;;;;;;;;;;;5130058;27;20018;-59
2022/12/11 09:42:16;;;;;;;;;;;;;;;;;;5137017;27;19923;-59
2022/12/11 09:44:42;;;;;;;;;;;;;;;;;;5132511;27;19926;-59
2022/12/11 09:47:08;;;;;;;;;;;;;;;;;;5144721;27;20293;-59
2022/12/11 09:49:34;;;;;;;;;;;;;;;;;;5129724;27;19919;-59
2022/12/11 09:52:00;;;;;;;;;;;;;;;;;;5126819;27;19941;-59
2022/12/11 09:54:26;;;;;;;;;;;;;;;;;;5126342;27;19919;-59
2022/12/11 09:56:52;;;;;;;;;;;;;;;;;;5138712;27;19968;-59
2022/12/11 09:59:18;;;;;;;;;;;;;;;;;;5132381;27;19931;-59
2022/12/11 10:01:44;;;;;;;;;;;;;;;;;;5135029;27;20372;-60
2022/12/11 10:04:10;;;;;;;;;;;;;;;;;;5125822;27;19923;-60
2022/12/11 10:06:36;;;;;;;;;;;;;;;;;;5137793;27;19926;-60
2022/12/11 10:09:02;;;;;;;;;;;;;;;;;;5128932;27;20305;-59
2022/12/11 10:11:28;;;;;;;;;;;;;;;;;;5125619;27;20222;-59
2022/12/11 10:13:53;;;;;;;;;;;;;;;;;;5126743;27;19919;-59
2022/12/11 10:16:19;;;;;;;;;;;;;;;;;;5133739;27;19987;-59
2022/12/11 10:18:46;;;;;;;;;;;;;;;;;;5127261;27;19937;-59
2022/12/11 10:21:11;;;;;;;;;;;;;;;;;;5129562;27;20002;-59
2022/12/11 10:23:37;;;;;;;;;;;;;;;;;;5133833;27;20014;-59
2022/12/11 10:26:03;;;;;;;;;;;;;;;;;;5127580;27;20361;-59
2022/12/11 10:28:29;;;;;;;;;;;;;;;;;;5130082;27;19923;-59
2022/12/11 10:30:55;;;;;;;;;;;;;;;;;;5132247;27;19942;-61
2022/12/11 10:33:21;;;;;;;;;;;;;;;;;;5138278;27;19919;-59
2022/12/11 10:35:47;;;;;;;;;;;;;;;;;;5128710;27;19945;-59
2022/12/11 10:38:13;;;;;;;;;;;;;;;;;;5137243;27;20489;-59
2022/12/11 10:40:39;;;;;;;;;;;;;;;;;;5129377;27;20017;-58
2022/12/11 10:43:05;;;;;;;;;;;;;;;;;;5130655;27;20456;-59
2022/12/11 10:45:31;;;;;;;;;;;;;;;;;;5131745;27;19952;-59
2022/12/11 10:47:57;;;;;;;;;;;;;;;;;;5132659;27;19927;-59
2022/12/11 10:50:23;;;;;;;;;;;;;;;;;;5130043;27;19919;-60
2022/12/11 10:52:49;;;;;;;;;;;;;;;;;;5130337;27;19923;-59
2022/12/11 10:55:15;;;;;;;;;;;;;;;;;;5125867;27;20401;-59
2022/12/11 10:57:41;;;;;;;;;;;;;;;;;;5128905;27;19923;-59
2022/12/11 11:00:07;;;;;;;;;;;;;;;;;;5126750;27;19930;-59
2022/12/11 11:02:33;;;;;;;;;;;;;;;;;;5138322;27;19925;-59
2022/12/11 11:04:58;;;;;;;;;;;;;;;;;;5125404;27;19919;-59
2022/12/11 11:07:24;;;;;;;;;;;;;;;;;;5122284;28;19919;-59
2022/12/11 11:09:53;;;;;;;;;;;;;;;;;;5122821;28;19919;-59
2022/12/11 11:12:19;;;;;;;;;;;;;;;;;;5129253;27;19998;-59
2022/12/11 11:14:45;;;;;;;;;;;;;;;;;;5133004;27;20405;-59
2022/12/11 11:17:10;;;;;;;;;;;;;;;;;;5124609;27;19980;-59
2022/12/11 11:19:36;;;;;;;;;;;;;;;;;;5130034;27;19919;-59
2022/12/11 11:22:02;;;;;;;;;;;;;;;;;;5125924;27;20235;-60
2022/12/11 11:24:28;;;;;;;;;;;;;;;;;;5134521;27;19930;-59
2022/12/11 11:26:54;;;;;;;;;;;;;;;;;;5126203;27;20309;-58
2022/12/11 11:29:20;;;;;;;;;;;;;;;;;;5129661;27;20286;-60
2022/12/11 11:31:46;;;;;;;;;;;;;;;;;;5132276;27;19930;-59
2022/12/11 11:34:12;;;;;;;;;;;;;;;;;;5132508;27;19933;-59
2022/12/11 11:36:38;;;;;;;;;;;;;;;;;;5141596;27;19919;-59
2022/12/11 11:39:04;;;;;;;;;;;;;;;;;;5131468;27;19938;-59
2022/12/11 11:41:30;;;;;;;;;;;;;;;;;;5136616;27;19974;-60
2022/12/11 11:43:56;;;;;;;;;;;;;;;;;;5141981;27;19922;-59
2022/12/11 11:46:22;;;;;;;;;;;;;;;;;;5128258;27;19927;-60
2022/12/11 11:48:47;;;;;;;;;;;;;;;;;;5133323;27;19926;-60
2022/12/11 11:51:14;;;;;;;;;;;;;;;;;;5129198;27;19919;-59
2022/12/11 11:53:40;;;;;;;;;;;;;;;;;;5132315;27;19972;-60
2022/12/11 11:56:06;;;;;;;;;;;;;;;;;;5134357;27;19923;-60
2022/12/11 11:58:32;;;;;;;;;;;;;;;;;;5133278;27;20347;-59
2022/12/11 12:00:58;;;;;;;;;;;;;;;;;;5132959;27;19931;-59
2022/12/11 12:03:24;;;;;;;;;;;;;;;;;;5128712;27;19920;-60
2022/12/11 12:05:50;;;;;;;;;;;;;;;;;;5135899;27;19926;-59
2022/12/11 12:08:16;;;;;;;;;;;;;;;;;;5129443;27;19919;-60
2022/12/11 12:10:42;;;;;;;;;;;;;;;;;;5129407;27;19923;-59
2022/12/11 12:13:07;;;;;;;;;;;;;;;;;;5129487;27;20318;-59
2022/12/11 12:15:33;;;;;;;;;;;;;;;;;;5127624;27;20407;-59
2022/12/11 12:18:18;;;;;;;26.60;12.60;;;;;;;;;;5128238;27;19923;-59
2022/12/11 12:21:03;;;;;;;22.88;10.60;;;;;;;;;;5132775;27;20422;-59
2022/12/11 12:23:37;;;;;;;21.20;10.13;;;;;;;;;;5130644;27;20966;-60
2022/12/11 12:26:13;;;;;;;23.52;11.27;;;;;;;;;;5127574;27;20035;-59
2022/12/11 12:28:45;;;;;;;21.75;10.85;;;;;;;;;;5127677;27;20046;-59
2022/12/11 12:31:15;;;;;;;21.27;11.82;;;;;;;;;;5130712;27;20039;-60
2022/12/11 12:34:00;;;;;;;23.85;12.40;;;;;;;;;;5135103;27;20135;-60
2022/12/11 12:36:26;;;;;;;;;;;;;;;;;;5128646;27;20039;-59
2022/12/11 12:38:52;;;;;;;;;;;;;;;;;;5140537;27;19945;-60
2022/12/11 12:41:18;;;;;;;;;;;;;;;;;;5136461;27;19948;-59
2022/12/11 12:43:44;;;;;;;;;;;;;;;;;;5142708;27;20417;-60
2022/12/11 12:46:10;;;;;;;;;;;;;;;;;;5134038;27;19930;-59
2022/12/11 12:48:36;;;;;;;;;;;;;;;;;;5131497;27;19930;-59
2022/12/11 12:51:02;;;;;;;;;;;;;;;;;;5133530;27;20060;-60
2022/12/11 12:53:28;;;;;;;;;;;;;;;;;;5134208;27;19929;-59
2022/12/11 12:55:54;;;;;;;;;;;;;;;;;;5133940;27;20400;-59
2022/12/11 12:58:20;;;;;;;;;;;;;;;;;;5127595;27;19919;-59
2022/12/11 13:00:46;;;;;;;;;;;;;;;;;;5132089;27;20362;-60
2022/12/11 13:03:12;;;;;;;;;;;;;;;;;;5132597;27;20497;-59
2022/12/11 13:05:38;;;;;;;;;;;;;;;;;;5129887;27;20372;-60
2022/12/11 13:08:04;;;;;;;;;;;;;;;;;;5134753;27;20223;-59
2022/12/11 13:10:30;;;;;;;;;;;;;;;;;;5136793;27;20042;-58
2022/12/11 13:12:56;;;;;;;;;;;;;;;;;;5133503;27;20377;-59
2022/12/11 13:15:22;;;;;;;;;;;;;;;;;;5127907;27;19926;-59
2022/12/11 13:17:47;;;;;;;;;;;;;;;;;;5127261;27;20225;-59
2022/12/11 13:20:13;;;;;;;;;;;;;;;;;;5127377;27;20266;-59
2022/12/11 13:22:39;;;;;;;;;;;;;;;;;;5134758;27;19964;-59
2022/12/11 13:25:05;;;;;;;;;;;;;;;;;;5126931;27;19919;-59
2022/12/11 13:27:31;;;;;;;;;;;;;;;;;;5127543;27;19927;-59
2022/12/11 13:29:57;;;;;;;;;;;;;;;;;;5127445;27;19927;-60
2022/12/11 13:32:23;;;;;;;;;;;;;;;;;;5130270;27;20355;-59
2022/12/11 13:34:49;;;;;;;;;;;;;;;;;;5128596;27;19976;-59
2022/12/11 13:37:15;;;;;;;;;;;;;;;;;;5127594;27;19923;-59
2022/12/11 13:39:41;;;;;;;;;;;;;;;;;;5131916;27;20768;-59
2022/12/11 13:42:07;;;;;;;;;;;;;;;;;;5138884;27;20013;-59
2022/12/11 13:44:33;;;;;;;;;;;;;;;;;;5131477;27;20185;-59
2022/12/11 13:46:58;;;;;;;;;;;;;;;;;;5137027;27;19954;-60
2022/12/11 13:49:24;;;;;;;;;;;;;;;;;;5138869;27;20603;-59
2022/12/11 13:51:50;;;;;;;;;;;;;;;;;;5132785;27;19942;-59
2022/12/11 13:54:16;;;;;;;;;;;;;;;;;;5121712;27;19970;-59
2022/12/11 13:56:42;;;;;;;;;;;;;;;;;;5131140;27;20013;-59
2022/12/11 13:59:08;;;;;;;;;;;;;;;;;;5132587;27;19919;-59
2022/12/11 14:01:34;;;;;;;;;;;;;;;;;;5130639;27;19919;-59
2022/12/11 14:04:00;;;;;;;;;;;;;;;;;;5133437;27;20278;-59
2022/12/11 14:06:27;;;;;;;;;;;;;;;;;;5132916;27;19919;-59
2022/12/11 14:08:53;;;;;;;;;;;;;;;;;;5134723;27;19930;-59
2022/12/11 14:11:19;;;;;;;;;;;;;;;;;;5139391;27;19919;-60
2022/12/11 14:13:46;;;;;;;;;;;;;;;;;;5136194;27;20443;-59
2022/12/11 14:16:12;;;;;;;;;;;;;;;;;;5128631;27;19922;-59
2022/12/11 14:18:37;;;;;;;;;;;;;;;;;;5127708;27;19919;-59
2022/12/11 14:21:03;;;;;;;;;;;;;;;;;;5139433;27;19919;-59
2022/12/11 14:23:29;;;;;;;;;;;;;;;;;;5129205;27;20503;-59
2022/12/11 14:25:55;;;;;;;;;;;;;;;;;;5126736;27;19919;-59
2022/12/11 14:28:22;;;;;;;;;;;;;;;;;;5128975;27;20017;-59
2022/12/11 14:30:48;;;;;;;;;;;;;;;;;;5128613;27;20393;-59
2022/12/11 14:33:13;;;;;;;;;;;;;;;;;;5130438;27;19970;-59
2022/12/11 14:35:39;;;;;;;;;;;;;;;;;;5126251;27;20014;-59
2022/12/11 14:38:05;;;;;;;;;;;;;;;;;;5142519;27;19949;-59
2022/12/11 14:40:31;;;;;;;;;;;;;;;;;;5125693;27;20461;-59
2022/12/11 14:42:57;;;;;;;;;;;;;;;;;;5135461;27;19919;-59
2022/12/11 14:45:23;;;;;;;;;;;;;;;;;;5133393;27;20458;-60
2022/12/11 14:47:49;;;;;;;;;;;;;;;;;;5136518;27;19920;-59
2022/12/11 14:50:15;;;;;;;;;;;;;;;;;;5132849;27;19975;-60
2022/12/11 14:52:41;;;;;;;;;;;;;;;;;;5136734;27;19932;-59
2022/12/11 14:55:07;;;;;;;;;;;;;;;;;;5135967;27;20393;-59
2022/12/11 14:57:33;;;;;;;;;;;;;;;;;;5125436;27;20043;-60
2022/12/11 14:59:59;;;;;;;;;;;;;;;;;;5126510;27;19919;-59
2022/12/11 15:02:25;;;;;;;;;;;;;;;;;;5129057;27;19919;-59
2022/12/11 15:04:51;;;;;;;;;;;;;;;;;;5129527;27;19923;-59
2022/12/11 15:07:17;;;;;;;;;;;;;;;;;;5129731;27;19929;-59
2022/12/11 15:09:43;;;;;;;;;;;;;;;;;;5138967;27;19929;-59
2022/12/11 15:12:09;;;;;;;;;;;;;;;;;;5135884;27;19973;-60
2022/12/11 15:14:34;;;;;;;;;;;;;;;;;;5134903;27;19964;-60
2022/12/11 15:17:00;;;;;;;;;;;;;;;;;;5137450;27;19973;-59
2022/12/11 15:19:26;;;;;;;;;;;;;;;;;;5129093;27;20356;-59
2022/12/11 15:21:52;;;;;;;;;;;;;;;;;;5138644;27;20346;-59
2022/12/11 15:24:18;;;;;;;;;;;;;;;;;;5137659;27;20302;-59
2022/12/11 15:26:44;;;;;;;;;;;;;;;;;;5133971;27;20238;-59
2022/12/11 15:29:10;;;;;;;;;;;;;;;;;;5128768;27;20329;-60
2022/12/11 15:31:36;;;;;;;;;;;;;;;;;;5129187;27;19962;-59
2022/12/11 15:34:02;;;;;;;;;;;;;;;;;;5133904;27;20026;-59
2022/12/11 15:36:28;;;;;;;;;;;;;;;;;;5140714;27;19927;-60
2022/12/11 15:38:54;;;;;;;;;;;;;;;;;;5142715;27;19926;-59
2022/12/11 15:41:20;;;;;;;;;;;;;;;;;;5144309;27;20304;-59
2022/12/11 15:43:46;;;;;;;;;;;;;;;;;;5132121;27;19920;-59
2022/12/11 15:46:12;;;;;;;;;;;;;;;;;;5133314;27;19926;-59
2022/12/11 15:48:38;;;;;;;;;;;;;;;;;;5142492;27;19919;-59
2022/12/11 15:51:04;;;;;;;;;;;;;;;;;;5140592;27;19963;-59
2022/12/11 15:53:30;;;;;;;;;;;;;;;;;;5132174;27;19987;-59
2022/12/11 15:55:55;;;;;;;;;;;;;;;;;;5130460;27;19920;-59
2022/12/11 15:58:22;;;;;;;;;;;;;;;;;;5138038;27;19923;-59
2022/12/11 16:00:48;;;;;;;;;;;;;;;;;;5140809;27;19919;-59
2022/12/11 16:03:13;;;;;;;;;;;;;;;;;;5132606;27;19949;-59
2022/12/11 16:05:39;;;;;;;;;;;;;;;;;;5141225;27;20203;-59
2022/12/11 16:08:05;;;;;;;;;;;;;;;;;;5131846;27;19966;-59
2022/12/11 16:10:31;;;;;;;;;;;;;;;;;;5134281;27;19926;-59
2022/12/11 16:12:58;;;;;;;;;;;;;;;;;;5135850;27;19919;-59
2022/12/11 16:15:24;;;;;;;;;;;;;;;;;;5128263;27;19919;-59
2022/12/11 16:17:50;;;;;;;;;;;;;;;;;;5138528;27;19927;-59
2022/12/11 16:20:16;;;;;;;;;;;;;;;;;;5128068;27;20017;-59
2022/12/11 16:22:42;;;;;;;;;;;;;;;;;;5132067;27;19930;-58
2022/12/11 16:25:07;;;;;;;;;;;;;;;;;;5134713;27;19931;-59
2022/12/11 16:27:33;;;;;;;;;;;;;;;;;;5139938;27;19925;-59
2022/12/11 16:29:59;;;;;;;;;;;;;;;;;;5132842;27;20513;-59
2022/12/11 16:32:25;;;;;;;;;;;;;;;;;;5134052;27;19919;-59
2022/12/11 16:34:51;;;;;;;;;;;;;;;;;;5141700;27;20018;-59
2022/12/11 16:37:17;;;;;;;;;;;;;;;;;;5129454;27;20352;-59
2022/12/11 16:39:44;;;;;;;;;;;;;;;;;;5127940;27;20018;-59
2022/12/11 16:42:10;;;;;;;;;;;;;;;;;;5135454;27;20317;-59